Tiempo atmosférico en la estación meteorológica de El Bodón Base Aérea, Salamanca (805 m.)



Fecha
DESCASC
Temp. máxima en grados centígrados (hora)
DESCASC
Temp. mínima en grados centígrados (hora)
DESCASC
Temp. media en grados centígrados
DESCASC
Racha de viento máxima en m/sg (hora)
DESCASC
Velocidad máxima media en intervalos de 10 minutos(hora)
DESCASC
Precipitaciones diarias en mm
DESCASC
Precipitaciones de 00:00 a 06:00 en mm
DESCASC
Precipitaciones de 06:00 a 12:00 en mm
DESCASC
Precipitaciones de 12:00 a 18:00 en mm
DESCASC
Precipitaciones de 18:00 a 24:00 en mm
DESCASC
06-07-2020 35.3 (18:20) 14.3 (07:20) 24.8 6.94 (16:40) 4.17 (16:40) 0 0 0 0 0
05-07-2020 34.4 (17:20) 12 (07:10) 23.2 7.5 (17:20) 3.89 (15:20) 0 0 0 0 0
04-07-2020 31.6 (17:40) 10.2 (08:00) 20.9 7.22 (16:20) 3.89 (16:30) 0 0 0 0 0
03-07-2020 28.8 (18:20) 8.9 (07:00) 18.8 7.22 (17:20) 4.44 (19:20) 0 0 0 0 0
02-07-2020 25.6 (16:20) 12.6 (00:00) 19.1 10.28 (16:10) 5.56 (18:30) 0 0 0 0 0
01-07-2020 29.5 (16:40) 13.1 (00:00) 21.3 9.72 (20:20) 6.67 (19:40) 0 0 0 0 0
30-06-2020 32.5 (17:10) 14.3 (00:00) 23.4 11.67 (17:50) 6.39 (18:40) 0 0 0 0 0
29-06-2020 32.4 (17:40) 14.1 (00:00) 23.3 7.5 (16:50) 3.61 (20:50) 0 0 0 0 0
28-06-2020 29 (18:30) 13.4 (00:00) 21.2 9.17 (16:00) 5 (21:10) 0 0 0 0 0
27-06-2020 25.7 (15:40) 12.4 (00:00) 19.1 9.17 (17:30) 5.28 (17:30) 0 0 0 0 0
26-06-2020 26.2 (16:20) 10.3 (00:00) 18.3 8.89 (17:50) 6.11 (22:00) 0 0 0 0 0
25-06-2020 29.1 (16:20) 15.1 (00:00) 22.1 13.33 (16:20) 6.39 (12:30) 0 0 0 0 0
24-06-2020 31 (17:40) 15.6 (00:00) 23.3 11.39 (13:00) 7.78 (13:00) 0 0 0 0 0
23-06-2020 33.6 (17:00) 13.9 (00:00) 23.7 8.61 (15:40) 5.83 (14:40) 0 0 0 0 0
22-06-2020 32.7 (18:30) 12.2 (00:00) 22.5 6.39 (14:30) 3.89 (18:10) 0 0 0 0 0
21-06-2020 28 (18:20) 10.5 (00:00) 19.3 7.5 (16:20) 4.72 (20:40) 0 0 0 0 0
20-06-2020 28.4 (18:00) 8.7 (00:00) 18.5 8.33 (20:30) 5.83 (20:30) 0 0 0 0 0
19-06-2020 26.4 (17:50) 7.4 (00:00) 16.9 8.33 (14:30) 4.72 (19:20) 0 0 0 0 0
18-06-2020 24 (17:50) 9 (07:20) 16.5 8.06 (19:50) 5.28 (19:50) 0 0 0 0 0
17-06-2020 22.5 (18:00) 7.6 (00:00) 15 7.5 (00:10) 5 (00:10) 0 0 0 0 0
16-06-2020 21.8 (15:40) 10.8 (00:00) 16.3 11.11 (17:50) 7.22 (17:20) 0 0 0 0 0
15-06-2020 21.3 (16:10) 9.8 (00:00) 15.5 8.89 (18:30) 6.11 (19:20) 0 0 0 0 0
14-06-2020 20.6 (16:20) 6.2 (00:00) 13.4 7.78 (17:10) 5.28 (18:50) 0 0 0 0 0
13-06-2020 18.5 (15:50) 6.1 (00:00) 12.3 7.22 (16:50) 5.28 (19:20) 0 0 0 0 0
12-06-2020 15.6 (18:20) 7.5 (00:00) 11.6 11.67 (19:20) 8.33 (19:20) 1.2 0 0 1.2 0
11-06-2020 19.8 (15:50) 7.8 (00:00) 13.8 14.17 (15:30) 8.89 (15:30) 0 0 0 0 0
10-06-2020 24.7 (18:40) 7.2 (00:00) 16 8.89 (20:20) 6.11 (20:50) 0 0 0 0 0
09-06-2020 22.1 (17:30) 5.1 (00:00) 13.6 8.61 (16:00) 4.44 (15:20) 0 0 0 0 0
08-06-2020 20 (17:50) 6.9 (07:00) 13.5 10.56 (10:40) 6.39 (10:00) 0 0 0 0 0
07-06-2020 20.3 (17:40) 10.6 (00:00) 15.4 8.61 (20:10) 5.83 (20:10) 0 0 0 0 0

Gráficas

Temp. máximas Temp. mínimas Temp. medias Precipitaciones Rachas de viento máximas Velocidades máximas media en intervalos de 10 minutos

Datos horarios

Fecha y hora oficial Temperatura (ºC) Velocidad del viento (km/h) Dirección del viento Racha (km/h) Dirección de racha Precipitación (mm) Presión (hPa) Tendencia (hPa) Humedad (%)
2020-07-06 23:00:00 27.1 7 Noroeste 22 Oeste 0 -- -- 37
2020-07-06 22:00:00 30.6 0 Calma 14 Norte 0 -- -- 32
2020-07-06 21:00:00 32.9 8 Norte 16 Norte 0 -- -- 27
2020-07-06 20:00:00 34.1 6 Oeste 18 Norte 0 -- -- 26
2020-07-06 19:00:00 35 9 Noroeste 22 Noroeste 0 -- -- 25
2020-07-06 18:00:00 34.7 10 Nordeste 24 Noroeste 0 -- -- 26
2020-07-06 17:00:00 34.9 12 Noroeste 25 Norte 0 -- -- 25
2020-07-06 16:00:00 34.3 7 Norte 22 Noroeste 0 -- -- 25
2020-07-06 15:00:00 34.2 5 Nordeste 20 Oeste 0 -- -- 25
2020-07-06 14:00:00 32.5 4 Norte 15 Norte 0 -- -- 29
2020-07-06 13:00:00 30.7 8 Norte 18 Norte 0 -- -- 37
2020-07-06 12:00:00 27.8 10 Norte 17 Norte 0 -- -- 40
2020-07-06 11:00:00 25.8 6 Norte 11 Norte 0 -- -- 44
2020-07-06 10:00:00 22.6 2 Norte 9 Norte 0 -- -- 52
2020-07-06 09:00:00 18.8 6 Norte 9 Sur 0 -- -- 68
2020-07-06 08:00:00 14.7 9 Sur 11 Sur 0 -- -- 82
2020-07-06 07:00:00 14.5 8 Sur 12 Sur 0 -- -- 81
2020-07-06 06:00:00 15.3 8 Sur 12 Sur 0 -- -- 76
2020-07-06 05:00:00 16.4 9 Sur 11 Sur 0 -- -- 71
2020-07-06 04:00:00 17.4 10 Sur 14 Sur 0 -- -- 67
2020-07-06 03:00:00 20 8 Sur 11 Norte 0 -- -- 64
2020-07-06 02:00:00 22.7 6 Noroeste 10 Noroeste 0 -- -- 46
2020-07-06 01:00:00 22 7 Oeste 13 Oeste 0 -- -- 39
2020-07-06 00:00:00 24.1 0 Calma 6 Norte 0 -- -- 35
2020-07-05 23:00:00 27.1 3 Norte 9 Noroeste 0 -- -- 30
2020-07-05 22:00:00 28.7 7 Noroeste 10 Noroeste 0 -- -- 27
2020-07-05 21:00:00 31.8 6 Noroeste 15 Noroeste 0 -- -- 23
2020-07-05 20:00:00 32.7 10 Norte 21 Norte 0 -- -- 21
2020-07-05 19:00:00 33.7 11 Noroeste 22 Oeste 0 -- -- 20
2020-07-05 18:00:00 34.3 7 Sudoeste 27 Sudoeste 0 -- -- 20
2020-07-05 17:00:00 33.8 6 Norte 24 Noroeste 0 -- -- 22
2020-07-05 16:00:00 33.7 12 Oeste 27 Noroeste 0 -- -- 21
2020-07-05 15:00:00 33 7 Sudoeste 17 Sudeste 0 -- -- 21
2020-07-05 14:00:00 31.7 7 Este 16 Norte 0 -- -- 23
2020-07-05 13:00:00 29.8 8 Norte 14 Norte 0 -- -- 29
2020-07-05 12:00:00 26.6 7 Norte 13 Norte 0 -- -- 34
2020-07-05 11:00:00 23.9 7 Norte 12 Norte 0 -- -- 38
2020-07-05 10:00:00 20.9 0 Calma 5 Este 0 -- -- 44
2020-07-05 09:00:00 15.9 4 Sur 8 Sur 0 -- -- 64
2020-07-05 08:00:00 12.8 6 Sur 11 Sur 0 -- -- 66
2020-07-05 07:00:00 12.2 9 Sur 17 Sur 0 -- -- 68
2020-07-05 06:00:00 13.6 9 Sur 14 Sur 0 -- -- 61
2020-07-05 05:00:00 13.4 8 Sur 12 Sur 0 -- -- 65
2020-07-05 04:00:00 18 3 Sur 7 Norte 0 -- -- 47
2020-07-05 03:00:00 19.5 4 Nordeste 9 Este 0 -- -- 40
2020-07-05 02:00:00 19.8 6 Este 12 Nordeste 0 -- -- 39
2020-07-05 01:00:00 21.3 5 Nordeste 8 Nordeste 0 -- -- 35
2020-07-05 00:00:00 23.1 6 Nordeste 16 Nordeste 0 -- -- 32
2020-07-04 23:00:00 24.6 9 Nordeste 15 Nordeste 0 -- -- 30
2020-07-04 22:00:00 26.5 8 Norte 18 Norte 0 -- -- 28
2020-07-04 21:00:00 29.8 12 Nordeste 22 Norte 0 -- -- 23
2020-07-04 20:00:00 30.7 9 Norte 18 Norte 0 -- -- 24
2020-07-04 19:00:00 31.2 10 Nordeste 20 Norte 0 -- -- 23
2020-07-04 18:00:00 31.4 13 Norte 21 Noroeste 0 -- -- 23
2020-07-04 17:00:00 31.1 12 Norte 26 Noroeste 0 -- -- 24
2020-07-04 16:00:00 30.8 11 Norte 23 Norte 0 -- -- 26
2020-07-04 15:00:00 29.9 6 Noroeste 21 Nordeste 0 -- -- 24
2020-07-04 14:00:00 29.4 4 Norte 19 Nordeste 0 -- -- 28
2020-07-04 13:00:00 26.8 9 Norte 19 Noroeste 0 -- -- 33
2020-07-04 12:00:00 23.7 9 Norte 17 Norte 0 -- -- 40
2020-07-04 11:00:00 20.4 8 Norte 15 Norte 0 -- -- 44
2020-07-04 10:00:00 18.5 8 Norte 12 Noroeste 0 -- -- 54
2020-07-04 09:00:00 14.2 8 Sur 13 Sur 0 -- -- 78
2020-07-04 08:00:00 10.2 8 Sur 13 Sur 0 -- -- 90
2020-07-04 07:00:00 11.1 0 Calma 8 Sur 0 -- -- 81
2020-07-04 06:00:00 10.9 9 Sur 12 Sur 0 -- -- 85
2020-07-04 05:00:00 13.5 5 Sur 9 Noroeste 0 -- -- 73
2020-07-04 04:00:00 15.4 7 Noroeste 12 Norte 0 -- -- 70
2020-07-04 03:00:00 16.5 9 Norte 12 Norte 0 -- -- 66
2020-07-04 02:00:00 16.6 8 Noroeste 10 Noroeste 0 -- -- 61
2020-07-04 01:00:00 18.8 6 Norte 12 Noroeste 0 -- -- 49
2020-07-04 00:00:00 20.2 5 Norte 10 Norte 0 -- -- 38
2020-07-03 23:00:00 22 5 Norte 12 Norte 0 -- -- 34
2020-07-03 22:00:00 23.9 9 Norte 23 Noroeste 0 -- -- 32
2020-07-03 21:00:00 26.5 12 Norte 23 Norte 0 -- -- 29
2020-07-03 20:00:00 27.6 14 Norte 24 Noroeste 0 -- -- 27
2020-07-03 19:00:00 28.1 13 Noroeste 23 Noroeste 0 -- -- 25
2020-07-03 18:00:00 28.2 12 Norte 26 Noroeste 0 -- -- 25
2020-07-03 17:00:00 27.8 12 Norte 25 Norte 0 -- -- 26
2020-07-03 16:00:00 27.2 9 Norte 24 Nordeste 0 -- -- 30
2020-07-03 15:00:00 26.1 11 Nordeste 24 Nordeste 0 -- -- 35
2020-07-03 14:00:00 24.8 10 Norte 24 Norte 0 -- -- 40
2020-07-03 13:00:00 23.3 12 Norte 22 Noroeste 0 -- -- 45
2020-07-03 12:00:00 20.4 11 Nordeste 25 Norte 0 -- -- 54
2020-07-03 11:00:00 17.7 13 Norte 23 Norte 0 -- -- 62
2020-07-03 10:00:00 14.9 10 Norte 21 Nordeste 0 -- -- 71
2020-07-03 09:00:00 11.8 11 Norte 20 Norte 0 -- -- 81
2020-07-03 08:00:00 9.4 9 Norte 13 Norte 0 -- -- 88
2020-07-03 07:00:00 8.9 6 Norte 9 Norte 0 -- -- 85
2020-07-03 06:00:00 9.8 7 Norte 14 Norte 0 -- -- 81
2020-07-03 05:00:00 10.5 9 Norte 13 Norte 0 -- -- 79
2020-07-03 04:00:00 11.3 6 Norte 9 Norte 0 -- -- 76
2020-07-03 03:00:00 12.2 8 Norte 13 Norte 0 -- -- 74
2020-07-03 02:00:00 13.2 9 Norte 19 Norte 0 -- -- 73
2020-07-03 01:00:00 14.5 13 Noroeste 18 Noroeste 0 -- -- 69
2020-07-03 00:00:00 15.7 11 Noroeste 18 Noroeste 0 -- -- 60
2020-07-02 23:00:00 17 10 Noroeste 19 Norte 0 -- -- 51
2020-07-02 22:00:00 19.5 13 Noroeste 28 Noroeste 0 -- -- 45
2020-07-02 21:00:00 22.1 18 Noroeste 27 Noroeste 0 -- -- 41
2020-07-02 20:00:00 23.4 19 Noroeste 28 Noroeste 0 -- -- 34
2020-07-02 19:00:00 24.4 18 Noroeste 36 Oeste 0 -- -- 32
2020-07-02 18:00:00 25.1 18 Noroeste 35 Noroeste 0 -- -- 34
2020-07-02 17:00:00 25.5 14 Noroeste 37 Noroeste 0 -- -- 32
2020-07-02 16:00:00 25.2 14 Noroeste 29 Noroeste 0 -- -- 37
2020-07-02 15:00:00 24.3 12 Noroeste 28 Norte 0 -- -- 42
2020-07-02 14:00:00 23.5 12 Noroeste 25 Oeste 0 -- -- 45
2020-07-02 13:00:00 22.4 11 Noroeste 21 Noroeste 0 -- -- 53
2020-07-02 12:00:00 20.5 8 Nordeste 19 Norte 0 -- -- 63
2020-07-02 11:00:00 19.8 11 Noroeste 19 Nordeste 0 -- -- 66
2020-07-02 10:00:00 17.2 10 Norte 18 Noroeste 0 -- -- 75
2020-07-02 09:00:00 15.1 9 Norte 12 Norte 0 -- -- 91
2020-07-02 08:00:00 13.5 7 Norte 10 Noroeste 0 -- -- 95
2020-07-02 07:00:00 12.8 6 Norte 8 Noroeste 0 -- -- 92
2020-07-02 06:00:00 13.5 8 Norte 10 Norte 0 -- -- 92
2020-07-02 05:00:00 13.8 5 Noroeste 10 Noroeste 0 -- -- 89
2020-07-02 04:00:00 14.3 8 Noroeste 12 Noroeste 0 -- -- 87
2020-07-02 03:00:00 15.5 4 Norte 9 Norte 0 -- -- 80
2020-07-02 02:00:00 16.3 6 Norte 9 Norte 0 -- -- 78
2020-07-02 01:00:00 17.3 8 Noroeste 14 Noroeste 0 -- -- 70
2020-07-02 00:00:00 18.9 10 Norte 19 Norte 0 -- -- 65
2020-07-01 23:00:00 20.6 14 Norte 19 Noroeste 0 -- -- 60
2020-07-01 22:00:00 23.1 13 Noroeste 27 Noroeste 0 -- -- 52
2020-07-01 21:00:00 25.4 20 Noroeste 35 Norte 0 -- -- 45
2020-07-01 20:00:00 27 22 Noroeste 33 Noroeste 0 -- -- 40
2020-07-01 19:00:00 28.5 18 Noroeste 30 Norte 0 -- -- 38
2020-07-01 18:00:00 29.1 18 Noroeste 32 Noroeste 0 -- -- 36
2020-07-01 17:00:00 29 14 Noroeste 32 Noroeste 0 -- -- 35
2020-07-01 16:00:00 28.8 15 Noroeste 31 Noroeste 0 -- -- 34
2020-07-01 15:00:00 28.5 9 Oeste 24 Noroeste 0 -- -- 37
2020-07-01 14:00:00 26.9 9 Noroeste 27 Noroeste 0 -- -- 42
2020-07-01 13:00:00 24.9 6 Norte 19 Noroeste 0 -- -- 52
2020-07-01 12:00:00 22.6 9 Noroeste 16 Norte 0 -- -- 60
2020-07-01 11:00:00 20.1 5 Norte 13 Norte 0 -- -- 77
2020-07-01 10:00:00 17.9 5 Noroeste 10 Oeste 0 -- -- 84
2020-07-01 09:00:00 16.1 7 Noroeste 12 Norte 0 -- -- 91
2020-07-01 08:00:00 14.7 3 Sudoeste 10 Sudoeste 0 -- -- 93
2020-07-01 07:00:00 13.1 7 Sur 10 Sur 0 -- -- 92
2020-07-01 06:00:00 13.9 6 Sur 9 Sur 0 -- -- 89
2020-07-01 05:00:00 15.4 3 Oeste 8 Oeste 0 -- -- 84
2020-07-01 04:00:00 16.2 5 Noroeste 9 Oeste 0 -- -- 82
2020-07-01 03:00:00 16.6 3 Sur 7 Sur 0 -- -- 81
2020-07-01 02:00:00 18 5 Sudeste 8 Este 0 -- -- 76
2020-07-01 01:00:00 19.8 3 Oeste 13 Oeste 0 -- -- 69
2020-07-01 00:00:00 20.9 8 Noroeste 17 Noroeste 0 -- -- 64
2020-06-30 23:00:00 22.8 8 Noroeste 28 Noroeste 0 -- -- 53
2020-06-30 22:00:00 25.9 13 Noroeste 22 Oeste 0 -- -- 51
2020-06-30 21:00:00 29.2 14 Sudoeste 23 Sudoeste 0 -- -- 28
2020-06-30 20:00:00 31 14 Sudoeste 28 Sur 0 -- -- 24
2020-06-30 19:00:00 31.7 19 Sudoeste 32 Sur 0 -- -- 24
2020-06-30 18:00:00 32.1 19 Sudoeste 42 Sudoeste 0 -- -- 24
2020-06-30 17:00:00 32.1 21 Sudoeste 36 Sudoeste 0 -- -- 27
2020-06-30 16:00:00 32.1 15 Sudoeste 34 Sudoeste 0 -- -- 30
2020-06-30 15:00:00 31.7 22 Sur 33 Sur 0 -- -- 30
2020-06-30 14:00:00 31.3 19 Sur 32 Sudoeste 0 -- -- 31
2020-06-30 13:00:00 31 20 Sudoeste 32 Sudoeste 0 -- -- 30
2020-06-30 12:00:00 28.6 14 Sur 22 Sur 0 -- -- 39
2020-06-30 11:00:00 25.1 4 Norte 10 Noroeste 0 -- -- 57
2020-06-30 10:00:00 22.3 0 Calma 6 Oeste 0 -- -- 66
2020-06-30 09:00:00 17.8 3 Sudeste 8 Sudeste 0 -- -- 82
2020-06-30 08:00:00 14.6 6 Sur 12 Sur 0 -- -- 89
2020-06-30 07:00:00 14.6 9 Sur 11 Sur 0 -- -- 88
2020-06-30 06:00:00 15.1 8 Sur 14 Sur 0 -- -- 88
2020-06-30 05:00:00 15.3 8 Sur 12 Sur 0 -- -- 88
2020-06-30 04:00:00 16.7 5 Sur 10 Sur 0 -- -- 82
2020-06-30 03:00:00 20.3 4 Norte 8 Norte 0 -- -- 61
2020-06-30 02:00:00 21.1 4 Norte 10 Noroeste 0 -- -- 62
2020-06-30 01:00:00 22 5 Norte 12 Noroeste 0 -- -- 60
2020-06-30 00:00:00 22.9 4 Noroeste 7 Noroeste 0 -- -- 47
2020-06-29 23:00:00 24.8 0 Calma 10 Norte 0 -- -- 44
2020-06-29 22:00:00 26.8 6 Norte 17 Norte 0 -- -- 41
2020-06-29 21:00:00 29.5 12 Norte 19 Norte 0 -- -- 35
2020-06-29 20:00:00 30.7 11 Norte 22 Norte 0 -- -- 33
2020-06-29 19:00:00 31.2 7 Noroeste 18 Sudoeste 0 -- -- 33
2020-06-29 18:00:00 31.9 11 Sur 20 Sur 0 -- -- 31
2020-06-29 17:00:00 32.3 5 Este 27 Sudoeste 0 -- -- 30
2020-06-29 16:00:00 31.1 9 Oeste 22 Oeste 0 -- -- 33
2020-06-29 15:00:00 30 7 Norte 20 Noroeste 0 -- -- 37
2020-06-29 14:00:00 28.8 4 Noroeste 13 Oeste 0 -- -- 40
2020-06-29 13:00:00 26.8 6 Norte 15 Noroeste 0 -- -- 47
2020-06-29 12:00:00 24.3 5 Norte 17 Nordeste 0 -- -- 57
2020-06-29 11:00:00 21.6 9 Norte 16 Nordeste 0 -- -- 64
2020-06-29 10:00:00 19.4 8 Norte 13 Norte 0 -- -- 73
2020-06-29 09:00:00 16.8 6 Norte 9 Norte 0 -- -- 83
2020-06-29 08:00:00 14.6 3 Norte 6 Norte 0 -- -- 87
2020-06-29 07:00:00 14.1 5 Norte 7 Norte 0 -- -- 87
2020-06-29 06:00:00 14.7 5 Norte 7 Norte 0 -- -- 85
2020-06-29 05:00:00 14.9 3 Norte 4 Noroeste 0 -- -- 85
2020-06-29 04:00:00 16.2 3 Norte 8 Norte 0 -- -- 80
2020-06-29 03:00:00 16.9 4 Norte 11 Norte 0 -- -- 79
2020-06-29 02:00:00 17.7 5 Norte 10 Norte 0 -- -- 78
2020-06-29 01:00:00 18.6 8 Norte 19 Norte 0 -- -- 74
2020-06-29 00:00:00 20 11 Norte 20 Norte 0 -- -- 69
2020-06-28 23:00:00 21.8 14 Noroeste 24 Noroeste 0 -- -- 62
2020-06-28 22:00:00 24 14 Noroeste 26 Norte 0 -- -- 55
2020-06-28 21:00:00 26.3 17 Noroeste 25 Noroeste 0 -- -- 48
2020-06-28 20:00:00 27.5 15 Norte 25 Nordeste 0 -- -- 42
2020-06-28 19:00:00 28.6 15 Noroeste 24 Noroeste 0 -- -- 39
2020-06-28 18:00:00 28.8 12 Noroeste 25 Noroeste 0 -- -- 40
2020-06-28 17:00:00 28.2 11 Noroeste 26 Norte 0 -- -- 41
2020-06-28 16:00:00 27.3 12 Noroeste 33 Noroeste 0 -- -- 43
2020-06-28 15:00:00 26.4 10 Norte 24 Norte 0 -- -- 44
2020-06-28 14:00:00 25 13 Norte 24 Norte 0 -- -- 48
2020-06-28 13:00:00 23.5 14 Norte 28 Nordeste 0 -- -- 53
2020-06-28 12:00:00 21.8 10 Norte 22 Noroeste 0 -- -- 64
2020-06-28 11:00:00 19.2 7 Nordeste 18 Norte 0 -- -- 78
2020-06-28 10:00:00 15.5 8 Norte 15 Norte 0 -- -- 92
2020-06-28 09:00:00 15.4 8 Norte 11 Norte 0 -- -- 93
2020-06-28 08:00:00 13.7 2 Noroeste 4 Norte 0 -- -- 94
2020-06-28 07:00:00 13.6 3 Norte 6 Norte 0 -- -- 93
2020-06-28 06:00:00 13.7 2 Norte 3 Norte 0 -- -- 91
2020-06-28 05:00:00 14.3 2 Nordeste 4 Nordeste 0 -- -- 90
2020-06-28 04:00:00 14.9 2 Norte 5 Norte 0 -- -- 86
2020-06-28 03:00:00 15.3 4 Norte 9 Norte 0 -- -- 85
2020-06-28 02:00:00 15.9 5 Norte 16 Noroeste 0 -- -- 83
2020-06-28 01:00:00 16.8 11 Norte 18 Noroeste 0 -- -- 80
2020-06-28 00:00:00 18.1 11 Noroeste 19 Noroeste 0 -- -- 75
2020-06-27 23:00:00 19 12 Noroeste 17 Noroeste 0 -- -- 70
2020-06-27 22:00:00 20.9 10 Noroeste 18 Noroeste 0 -- -- 61
2020-06-27 21:00:00 22.7 13 Noroeste 22 Noroeste 0 -- -- 54
2020-06-27 20:00:00 23.6 14 Noroeste 24 Norte 0 -- -- 54
2020-06-27 19:00:00 23.6 15 Noroeste 27 Norte 0 -- -- 53
2020-06-27 18:00:00 23.5 14 Norte 33 Noroeste 0 -- -- 55
2020-06-27 17:00:00 24.4 18 Noroeste 30 Noroeste 0 -- -- 51
2020-06-27 16:00:00 25 18 Noroeste 28 Norte 0 -- -- 50
2020-06-27 15:00:00 24.4 12 Noroeste 30 Noroeste 0 -- -- 50
2020-06-27 14:00:00 22.6 9 Noroeste 19 Noroeste 0 -- -- 55
2020-06-27 13:00:00 21.5 8 Noroeste 19 Norte 0 -- -- 60
2020-06-27 12:00:00 19.3 4 Nordeste 12 Noroeste 0 -- -- 68
2020-06-27 11:00:00 16 2 Norte 13 Noroeste 0 -- -- 81
2020-06-27 10:00:00 15.1 3 Norte 12 Nordeste 0 -- -- 86
2020-06-27 09:00:00 13.8 6 Norte 12 Norte 0 -- -- 93
2020-06-27 08:00:00 13.2 6 Noroeste 10 Noroeste 0 -- -- 94
2020-06-27 07:00:00 12.9 3 Norte 9 Noroeste 0 -- -- 93
2020-06-27 06:00:00 12.8 7 Noroeste 10 Noroeste 0 -- -- 93
2020-06-27 05:00:00 12.8 3 Norte 9 Este 0 -- -- 88
2020-06-27 04:00:00 13.5 6 Noroeste 13 Este 0 -- -- 85
2020-06-27 03:00:00 14.4 9 Norte 13 Norte 0 -- -- 80
2020-06-27 02:00:00 14.6 13 Noroeste 18 Noroeste 0 -- -- 80
2020-06-27 01:00:00 15.8 6 Norte 13 Norte 0 -- -- 76
2020-06-27 00:00:00 16.7 8 Noroeste 22 Noroeste 0 -- -- 73
2020-06-26 23:00:00 17.8 12 Noroeste 29 Noroeste 0 -- -- 70
2020-06-26 22:00:00 19.4 22 Noroeste 30 Noroeste 0 -- -- 64
2020-06-26 21:00:00 22.1 18 Noroeste 30 Oeste 0 -- -- 52
2020-06-26 20:00:00 23.8 14 Noroeste 25 Oeste 0 -- -- 45
2020-06-26 19:00:00 24.9 13 Noroeste 28 Noroeste 0 -- -- 39
2020-06-26 18:00:00 25.1 14 Norte 32 Noroeste 0 -- -- 32
2020-06-26 17:00:00 25.8 18 Noroeste 30 Oeste 0 -- -- 30
2020-06-26 16:00:00 25.8 13 Noroeste 27 Noroeste 0 -- -- 32
2020-06-26 15:00:00 24.7 14 Oeste 27 Oeste 0 -- -- 37
2020-06-26 14:00:00 23.2 8 Noroeste 18 Oeste 0 -- -- 45
2020-06-26 13:00:00 20.9 7 Norte 22 Noroeste 0 -- -- 57
2020-06-26 12:00:00 19.2 9 Norte 16 Noroeste 0 -- -- 64
2020-06-26 11:00:00 16.8 4 Este 11 Norte 0 -- -- 72
2020-06-26 10:00:00 13.5 5 Norte 11 Noroeste 0 -- -- 84
2020-06-26 09:00:00 11.9 4 Noroeste 9 Noroeste 0 -- -- 94
2020-06-26 08:00:00 10.6 2 Sudoeste 6 Oeste 0 -- -- 95
2020-06-26 07:00:00 10.3 3 Norte 6 Norte 0 -- -- 94
2020-06-26 06:00:00 10.9 0 Calma 5 Oeste 0 -- -- 93
2020-06-26 05:00:00 11.7 3 Sudoeste 5 Sudoeste 0 -- -- 91
2020-06-26 04:00:00 12.6 3 Norte 13 Noroeste 0 -- -- 91
2020-06-26 03:00:00 13.7 4 Noroeste 8 Noroeste 0 -- -- 87
2020-06-26 02:00:00 14.7 6 Noroeste 9 Noroeste 0 -- -- 86
2020-06-26 01:00:00 16.2 5 Noroeste 9 Norte 0 -- -- 82
2020-06-26 00:00:00 17.7 6 Norte 15 Noroeste 0 -- -- 77
2020-06-25 23:00:00 19.4 12 Noroeste 18 Noroeste 0 -- -- 70
2020-06-25 22:00:00 22.1 5 Noroeste 23 Noroeste 0 -- -- 52
2020-06-25 21:00:00 25.3 15 Noroeste 26 Noroeste 0 -- -- 40
2020-06-25 20:00:00 27 11 Sudoeste 30 Sur 0 -- -- 38
2020-06-25 19:00:00 28.7 17 Sur 36 Sur 0 -- -- 34
2020-06-25 18:00:00 28.6 17 Sur 32 Sur 0 -- -- 36
2020-06-25 17:00:00 28.6 15 Sudoeste 48 Sur 0 -- -- 35
2020-06-25 16:00:00 28.5 14 Sudoeste 34 Sudoeste 0 -- -- 34
2020-06-25 15:00:00 28.4 19 Sudoeste 30 Sudoeste 0 -- -- 34
2020-06-25 14:00:00 27.9 18 Sudoeste 37 Sur 0 -- -- 36
2020-06-25 13:00:00 27.6 21 Sur 32 Sudoeste 0 -- -- 36
2020-06-25 12:00:00 26.6 19 Sur 33 Sur 0 -- -- 41
2020-06-25 11:00:00 25.6 21 Sur 30 Sur 0 -- -- 39
2020-06-25 10:00:00 23.2 6 Sur 12 Sur 0 -- -- 58
2020-06-25 09:00:00 19.4 0 Calma 5 Noroeste 0 -- -- 76
2020-06-25 08:00:00 16.4 0 Calma 6 Oeste 0 -- -- 88
2020-06-25 07:00:00 15.9 0 Calma 9 Sur 0 -- -- 85
2020-06-25 06:00:00 15.1 4 Sur 12 Sur 0 -- -- 88
2020-06-25 05:00:00 15.8 8 Sur 12 Sur 0 -- -- 86
2020-06-25 04:00:00 16.7 8 Sur 10 Sur 0 -- -- 83
2020-06-25 03:00:00 17.9 4 Sur 8 Sur 0 -- -- 80
2020-06-25 02:00:00 19 4 Oeste 7 Sur 0 -- -- 76
2020-06-25 01:00:00 19.9 5 Oeste 12 Oeste 0 -- -- 65
2020-06-25 00:00:00 20.9 6 Norte 11 Noroeste 0 -- -- 60
2020-06-24 23:00:00 22.5 4 Norte 15 Norte 0 -- -- 56
2020-06-24 22:00:00 26.1 2 Noroeste 11 Norte 0 -- -- 43
2020-06-24 21:00:00 27.7 10 Sudoeste 26 Sudoeste 0 -- -- 38
2020-06-24 20:00:00 29.3 18 Sur 34 Sur 0 -- -- 37
2020-06-24 19:00:00 30.2 19 Sudoeste 35 Sur 0 -- -- 35
2020-06-24 18:00:00 30.8 21 Sudoeste 40 Sur 0 -- -- 34
2020-06-24 17:00:00 30.6 22 Sur 35 Sur 0 -- -- 34
2020-06-24 16:00:00 30.6 19 Sur 33 Sur 0 -- -- 41
2020-06-24 15:00:00 30.4 26 Sur 40 Sur 0 -- -- 39
2020-06-24 14:00:00 29.6 19 Sur 39 Sur 0 -- -- 41
2020-06-24 13:00:00 28.8 28 Sur 41 Sur 0 -- -- 41
2020-06-24 12:00:00 27.3 21 Sur 34 Sur 0 -- -- 44
2020-06-24 11:00:00 26.3 15 Sur 29 Sur 0 -- -- 47
2020-06-24 10:00:00 21.2 10 Sur 15 Sur 0 -- -- 67
2020-06-24 09:00:00 19.3 5 Sur 12 Sur 0 -- -- 78
2020-06-24 08:00:00 16.1 9 Sur 14 Sur 0 -- -- 89
2020-06-24 07:00:00 16.2 7 Sur 15 Sur 0 -- -- 89
2020-06-24 06:00:00 15.8 10 Sur 13 Sur 0 -- -- 89
2020-06-24 05:00:00 17 4 Sudoeste 9 Sudoeste 0 -- -- 83
2020-06-24 04:00:00 18.4 6 Sudoeste 9 Sur 0 -- -- 78
2020-06-24 03:00:00 20.1 6 Sudoeste 10 Sudoeste 0 -- -- 72
2020-06-24 02:00:00 20.5 5 Sur 8 Sur 0 -- -- 70
2020-06-24 01:00:00 21.8 4 Sur 10 Norte 0 -- -- 67
2020-06-24 00:00:00 24.4 8 Norte 16 Norte 0 -- -- 59
2020-06-23 23:00:00 25.8 10 Noroeste 18 Norte 0 -- -- 52
2020-06-23 22:00:00 29 4 Sudeste 12 Este 0 -- -- 34
2020-06-23 21:00:00 31.2 6 Sudoeste 24 Sudoeste 0 -- -- 29
2020-06-23 20:00:00 32.7 6 Sur 17 Sudoeste 0 -- -- 27
2020-06-23 19:00:00 33.4 14 Sudoeste 25 Oeste 0 -- -- 27
2020-06-23 18:00:00 33.3 9 Sudoeste 25 Sudoeste 0 -- -- 27
2020-06-23 17:00:00 33.6 12 Sur 26 Sudoeste 0 -- -- 25
2020-06-23 16:00:00 32.8 13 Sur 31 Sur 0 -- -- 26
2020-06-23 15:00:00 33.1 16 Sur 30 Sur 0 -- -- 26
2020-06-23 14:00:00 31.8 14 Sur 25 Sudeste 0 -- -- 33
2020-06-23 13:00:00 31 10 Sudeste 29 Sur 0 -- -- 32
2020-06-23 12:00:00 28.3 6 Norte 13 Norte 0 -- -- 41
2020-06-23 11:00:00 25.6 7 Norte 12 Norte 0 -- -- 50
2020-06-23 10:00:00 22.6 4 Norte 6 Norte 0 -- -- 57
2020-06-23 09:00:00 18.2 0 Calma 5 Sudeste 0 -- -- 67
2020-06-23 08:00:00 14.6 0 Calma 7 Sur 0 -- -- 77
2020-06-23 07:00:00 14.3 7 Sur 14 Sur 0 -- -- 77
2020-06-23 06:00:00 14.2 11 Sur 16 Sur 0 -- -- 77
2020-06-23 05:00:00 14.5 12 Sur 17 Sur 0 -- -- 76
2020-06-23 04:00:00 15 8 Sur 14 Sudeste 0 -- -- 77
2020-06-23 03:00:00 15.7 8 Sur 14 Sur 0 -- -- 79
2020-06-23 02:00:00 17.1 8 Sur 10 Sur 0 -- -- 75
2020-06-23 01:00:00 18.8 9 Sur 12 Sur 0 -- -- 66
2020-06-23 00:00:00 21.9 0 Calma 8 Norte 0 -- -- 47
2020-06-22 23:00:00 25.4 0 Calma 2 Sur 0 -- -- 32
2020-06-22 22:00:00 28.1 0 Calma 4 Sudoeste 0 -- -- 30
2020-06-22 21:00:00 30.5 3 Sudoeste 14 Sur 0 -- -- 26
2020-06-22 20:00:00 31.8 12 Sur 20 Sur 0 -- -- 23
2020-06-22 19:00:00 32.4 8 Sudoeste 22 Sur 0 -- -- 24
2020-06-22 18:00:00 32.6 8 Sur 18 Sur 0 -- -- 26
2020-06-22 17:00:00 32.5 9 Sur 20 Sur 0 -- -- 22
2020-06-22 16:00:00 31.9 12 Sur 22 Sur 0 -- -- 24
2020-06-22 15:00:00 31.5 7 Sudeste 23 Sudeste 0 -- -- 27
2020-06-22 14:00:00 30.4 7 Nordeste 21 Nordeste 0 -- -- 31
2020-06-22 13:00:00 28.5 5 Este 19 Norte 0 -- -- 41
2020-06-22 12:00:00 25.2 7 Norte 17 Norte 0 -- -- 52
2020-06-22 11:00:00 21.6 6 Norte 12 Noroeste 0 -- -- 62
2020-06-22 10:00:00 18.6 5 Norte 9 Norte 0 -- -- 73
2020-06-22 09:00:00 15.5 4 Norte 5 Norte 0 -- -- 86
2020-06-22 08:00:00 12.7 0 Calma 6 Sur 0 -- -- 91
2020-06-22 07:00:00 13.5 2 Noroeste 9 Norte 0 -- -- 87
2020-06-22 06:00:00 14.3 6 Norte 10 Noroeste 0 -- -- 85
2020-06-22 05:00:00 15.5 7 Norte 11 Norte 0 -- -- 81
2020-06-22 04:00:00 16.5 6 Norte 8 Norte 0 -- -- 77
2020-06-22 03:00:00 16.6 2 Norte 9 Nordeste 0 -- -- 76
2020-06-22 02:00:00 18.1 6 Nordeste 12 Norte 0 -- -- 71
2020-06-22 01:00:00 18.9 7 Norte 13 Norte 0 -- -- 68
2020-06-22 00:00:00 20.6 9 Norte 15 Norte 0 -- -- 62
2020-06-21 23:00:00 21.4 6 Norte 16 Noroeste 0 -- -- 59
2020-06-21 22:00:00 23.6 10 Norte 19 Norte 0 -- -- 49
2020-06-21 21:00:00 25.8 14 Norte 25 Noroeste 0 -- -- 42
2020-06-21 20:00:00 27 16 Norte 24 Norte 0 -- -- 35
2020-06-21 19:00:00 27.6 13 Noroeste 23 Norte 0 -- -- 27
2020-06-21 18:00:00 27.6 12 Norte 25 Norte 0 -- -- 30
2020-06-21 17:00:00 27.2 13 Norte 27 Norte 0 -- -- 29
2020-06-21 16:00:00 26.4 13 Norte 27 Nordeste 0 -- -- 34
2020-06-21 15:00:00 25.1 13 Norte 27 Noroeste 0 -- -- 34
2020-06-21 14:00:00 24.3 15 Norte 25 Norte 0 -- -- 38
2020-06-21 13:00:00 22.7 13 Norte 22 Nordeste 0 -- -- 43
2020-06-21 12:00:00 20.5 11 Norte 21 Norte 0 -- -- 50
2020-06-21 11:00:00 18.3 10 Norte 17 Nordeste 0 -- -- 57
2020-06-21 10:00:00 16.2 8 Norte 13 Norte 0 -- -- 72
2020-06-21 09:00:00 13.2 3 Noroeste 7 Noroeste 0 -- -- 89
2020-06-21 08:00:00 10.7 0 Calma 8 Noroeste 0 -- -- 91
2020-06-21 07:00:00 10.8 5 Noroeste 9 Noroeste 0 -- -- 90
2020-06-21 06:00:00 11.4 4 Noroeste 6 Noroeste 0 -- -- 89
2020-06-21 05:00:00 11.9 2 Norte 5 Norte 0 -- -- 88
2020-06-21 04:00:00 12.5 0 Calma 3 Nordeste 0 -- -- 85
2020-06-21 03:00:00 13.6 0 Calma 3 Sudeste 0 -- -- 82
2020-06-21 02:00:00 14.4 0 Calma 8 Noroeste 0 -- -- 79
2020-06-21 01:00:00 15.7 5 Noroeste 18 Noroeste 0 -- -- 75
2020-06-21 00:00:00 16.9 10 Noroeste 20 Noroeste 0 -- -- 72
2020-06-20 23:00:00 19.3 18 Noroeste 27 Noroeste 0 -- -- 64
2020-06-20 22:00:00 21.6 14 Noroeste 25 Noroeste 0 -- -- 53
2020-06-20 21:00:00 24.2 18 Noroeste 30 Noroeste 0 -- -- 44
2020-06-20 20:00:00 25.9 19 Noroeste 29 Noroeste 0 -- -- 38
2020-06-20 19:00:00 27.3 18 Noroeste 30 Noroeste 0 -- -- 34
2020-06-20 18:00:00 28.4 9 Oeste 22 Oeste 0 -- -- 33
2020-06-20 17:00:00 27.5 10 Sudoeste 25 Oeste 0 -- -- 38
2020-06-20 16:00:00 27.5 15 Oeste 27 Sudoeste 0 -- -- 33
2020-06-20 15:00:00 26.3 13 Sur 22 Sudoeste 0 -- -- 38
2020-06-20 14:00:00 24.9 6 Sudeste 19 Sur 0 -- -- 43
2020-06-20 13:00:00 23.3 4 Oeste 15 Sudoeste 0 -- -- 46
2020-06-20 12:00:00 20.7 7 Norte 15 Norte 0 -- -- 54
2020-06-20 11:00:00 18.6 7 Norte 13 Norte 0 -- -- 60
2020-06-20 10:00:00 16.4 8 Norte 12 Norte 0 -- -- 66
2020-06-20 09:00:00 12.5 3 Sur 6 Sudeste 0 -- -- 84
2020-06-20 08:00:00 9.6 0 Calma 5 Sur 0 -- -- 90
2020-06-20 07:00:00 8.9 3 Sur 8 Sur 0 -- -- 90
2020-06-20 06:00:00 9.6 6 Sur 9 Sur 0 -- -- 90
2020-06-20 05:00:00 11 4 Sur 5 Sur 0 -- -- 77
2020-06-20 04:00:00 12.4 0 Calma 4 Norte 0 -- -- 75
2020-06-20 03:00:00 13 0 Calma 4 Sudoeste 0 -- -- 74
2020-06-20 02:00:00 13.9 0 Calma 4 Oeste 0 -- -- 72
2020-06-20 01:00:00 15 0 Calma 13 Noroeste 0 -- -- 71
2020-06-20 00:00:00 16.3 9 Noroeste 19 Noroeste 0 -- -- 68
2020-06-19 23:00:00 18.2 13 Noroeste 21 Noroeste 0 -- -- 62
2020-06-19 22:00:00 20.5 11 Noroeste 26 Noroeste 0 -- -- 49
2020-06-19 21:00:00 23 16 Noroeste 24 Noroeste 0 -- -- 41
2020-06-19 20:00:00 24.3 14 Noroeste 24 Noroeste 0 -- -- 35
2020-06-19 19:00:00 25.4 14 Noroeste 26 Noroeste 0 -- -- 31
2020-06-19 18:00:00 25.8 11 Norte 24 Noroeste 0 -- -- 27
2020-06-19 17:00:00 25.6 9 Noroeste 24 Noroeste 0 -- -- 29
2020-06-19 16:00:00 25.1 8 Noroeste 21 Oeste 0 -- -- 32
2020-06-19 15:00:00 23.8 10 Noroeste 30 Noroeste 0 -- -- 34
2020-06-19 14:00:00 22.6 11 Noroeste 22 Noroeste 0 -- -- 42
2020-06-19 13:00:00 20.5 6 Norte 15 Norte 0 -- -- 51
2020-06-19 12:00:00 18 4 Este 14 Noroeste 0 -- -- 57
2020-06-19 11:00:00 15.8 8 Norte 14 Nordeste 0 -- -- 68
2020-06-19 10:00:00 13.7 7 Norte 12 Norte 0 -- -- 77
2020-06-19 09:00:00 11.3 4 Norte 8 Norte 0 -- -- 91
2020-06-19 08:00:00 7.8 0 Calma 8 Sur 0 -- -- 94
2020-06-19 07:00:00 7.5 5 Sur 8 Sur 0 -- -- 92
2020-06-19 06:00:00 9.2 0 Calma 4 Noroeste 0 -- -- 87
2020-06-19 05:00:00 9.7 4 Noroeste 9 Noroeste 0 -- -- 86
2020-06-19 04:00:00 10.2 4 Noroeste 9 Noroeste 0 -- -- 83
2020-06-19 03:00:00 11 6 Noroeste 10 Noroeste 0 -- -- 80
2020-06-19 02:00:00 12.2 3 Noroeste 8 Norte 0 -- -- 76
2020-06-19 01:00:00 13.5 5 Norte 18 Noroeste 0 -- -- 72
2020-06-19 00:00:00 14.9 11 Noroeste 20 Noroeste 0 -- -- 66
2020-06-18 23:00:00 16.4 10 Noroeste 19 Noroeste 0 -- -- 59
2020-06-18 22:00:00 18.8 14 Noroeste 26 Noroeste 0 -- -- 52
2020-06-18 21:00:00 21.3 16 Noroeste 28 Oeste 0 -- -- 44
2020-06-18 20:00:00 22.2 16 Noroeste 29 Noroeste 0 -- -- 40
2020-06-18 19:00:00 23 12 Noroeste 28 Noroeste 0 -- -- 39
2020-06-18 18:00:00 23.9 10 Oeste 27 Oeste 0 -- -- 40
2020-06-18 17:00:00 23.3 14 Noroeste 27 Noroeste 0 -- -- 38
2020-06-18 16:00:00 22.8 13 Noroeste 27 Noroeste 0 -- -- 42
2020-06-18 15:00:00 22.6 9 Noroeste 24 Noroeste 0 -- -- 43
2020-06-18 14:00:00 21.2 9 Noroeste 19 Noroeste 0 -- -- 48
2020-06-18 13:00:00 19.8 7 Norte 21 Nordeste 0 -- -- 53
2020-06-18 12:00:00 17.7 10 Norte 16 Nordeste 0 -- -- 61
2020-06-18 11:00:00 15.4 9 Norte 16 Norte 0 -- -- 68
2020-06-18 10:00:00 13.5 9 Norte 15 Norte 0 -- -- 75
2020-06-18 09:00:00 11.6 6 Norte 11 Norte 0 -- -- 86
2020-06-18 08:00:00 9.6 4 Norte 11 Norte 0 -- -- 92
2020-06-18 07:00:00 9.1 4 Norte 9 Norte 0 -- -- 91
2020-06-18 06:00:00 9.6 5 Norte 8 Noroeste 0 -- -- 89
2020-06-18 05:00:00 10.2 5 Noroeste 8 Noroeste 0 -- -- 87
2020-06-18 04:00:00 11 4 Norte 8 Norte 0 -- -- 83
2020-06-18 03:00:00 11.9 5 Norte 8 Noroeste 0 -- -- 79
2020-06-18 02:00:00 13.3 5 Norte 12 Noroeste 0 -- -- 73
2020-06-18 01:00:00 14.1 9 Norte 15 Norte 0 -- -- 69
2020-06-18 00:00:00 14.5 10 Noroeste 21 Norte 0 -- -- 68
2020-06-17 23:00:00 15.7 12 Noroeste 24 Noroeste 0 -- -- 65
2020-06-17 22:00:00 17.5 10 Noroeste 25 Noroeste 0 -- -- 57
2020-06-17 21:00:00 19.3 16 Noroeste 25 Noroeste 0 -- -- 49
2020-06-17 20:00:00 20.3 13 Noroeste 22 Norte 0 -- -- 43
2020-06-17 19:00:00 20.8 9 Norte 27 Oeste 0 -- -- 42
2020-06-17 18:00:00 22.5 9 Noroeste 26 Norte 0 -- -- 40
2020-06-17 17:00:00 21.4 12 Noroeste 26 Noroeste 0 -- -- 44
2020-06-17 16:00:00 21.1 6 Noroeste 20 Noroeste 0 -- -- 44
2020-06-17 15:00:00 19.6 9 Noroeste 22 Noroeste 0 -- -- 47
2020-06-17 14:00:00 18 11 Norte 22 Nordeste 0 -- -- 53
2020-06-17 13:00:00 17.4 7 Norte 21 Norte 0 -- -- 57
2020-06-17 12:00:00 14.8 7 Norte 18 Nordeste 0 -- -- 66
2020-06-17 11:00:00 12.7 8 Norte 16 Nordeste 0 -- -- 75
2020-06-17 10:00:00 11.7 7 Norte 13 Norte 0 -- -- 80
2020-06-17 09:00:00 9.8 5 Nordeste 10 Norte 0 -- -- 87
2020-06-17 08:00:00 8.9 4 Norte 11 Norte 0 -- -- 90
2020-06-17 07:00:00 8.7 6 Norte 11 Norte 0 -- -- 91
2020-06-17 06:00:00 8.3 5 Norte 8 Norte 0 -- -- 92
2020-06-17 05:00:00 7.6 4 Noroeste 9 Noroeste 0 -- -- 91
2020-06-17 04:00:00 8.2 5 Norte 7 Norte 0 -- -- 89
2020-06-17 03:00:00 8.8 2 Oeste 8 Oeste 0 -- -- 86
2020-06-17 02:00:00 9.5 5 Noroeste 10 Noroeste 0 -- -- 82
2020-06-17 01:00:00 10.8 8 Noroeste 27 Noroeste 0 -- -- 77
2020-06-17 00:00:00 12.3 21 Noroeste 35 Noroeste 0 -- -- 73
2020-06-16 23:00:00 13.7 17 Noroeste 28 Noroeste 0 -- -- 71
2020-06-16 22:00:00 15.5 16 Noroeste 26 Noroeste 0 -- -- 60
2020-06-16 21:00:00 17.8 19 Noroeste 32 Oeste 0 -- -- 53
2020-06-16 20:00:00 19.2 23 Oeste 35 Oeste 0 -- -- 50
2020-06-16 19:00:00 19.2 21 Noroeste 39 Oeste 0 -- -- 50
2020-06-16 18:00:00 20.5 22 Noroeste 40 Oeste 0 -- -- 49
2020-06-16 17:00:00 20.5 24 Noroeste 39 Noroeste 0 -- -- 51
2020-06-16 16:00:00 20.9 21 Noroeste 35 Oeste 0 -- -- 50
2020-06-16 15:00:00 21.1 19 Oeste 33 Oeste 0 -- -- 52
2020-06-16 14:00:00 19.4 19 Noroeste 31 Noroeste 0 -- -- 54
2020-06-16 13:00:00 19.5 14 Oeste 25 Noroeste 0 -- -- 52
2020-06-16 12:00:00 18.9 8 Oeste 18 Oeste 0 -- -- 53
2020-06-16 11:00:00 16.9 7 Norte 19 Noroeste 0 -- -- 63
2020-06-16 10:00:00 14.7 8 Norte 13 Norte 0 -- -- 69
2020-06-16 09:00:00 12.5 3 Norte 9 Noroeste 0 -- -- 82
2020-06-16 08:00:00 11.3 2 Noroeste 8 Norte 0 -- -- 89
2020-06-16 07:00:00 11 4 Noroeste 7 Norte 0 -- -- 87
2020-06-16 06:00:00 11.2 3 Norte 7 Noroeste 0 -- -- 87
2020-06-16 05:00:00 11.3 5 Norte 9 Noroeste 0 -- -- 86
2020-06-16 04:00:00 11.6 7 Norte 10 Norte 0 -- -- 85
2020-06-16 03:00:00 11.9 4 Norte 13 Norte 0 -- -- 81
2020-06-16 02:00:00 12.8 9 Norte 14 Norte 0 -- -- 77
2020-06-16 01:00:00 12.9 6 Norte 16 Noroeste 0 -- -- 76
2020-06-16 00:00:00 13.3 11 Norte 21 Norte 0 -- -- 73
2020-06-15 23:00:00 14.3 13 Norte 18 Norte 0 -- -- 70
2020-06-15 22:00:00 15.1 11 Norte 27 Norte 0 -- -- 67
2020-06-15 21:00:00 17.1 17 Noroeste 26 Norte 0 -- -- 60
2020-06-15 20:00:00 17.9 15 Norte 30 Noroeste 0 -- -- 58
2020-06-15 19:00:00 19 19 Norte 32 Noroeste 0 -- -- 55
2020-06-15 18:00:00 20.5 17 Noroeste 28 Oeste 0 -- -- 49
2020-06-15 17:00:00 20.2 17 Noroeste 32 Noroeste 0 -- -- 51
2020-06-15 16:00:00 21.1 11 Oeste 26 Noroeste 0 -- -- 48
2020-06-15 15:00:00 20.1 11 Noroeste 24 Noroeste 0 -- -- 50
2020-06-15 14:00:00 19.2 10 Noroeste 21 Oeste 0 -- -- 53
2020-06-15 13:00:00 16.9 6 Norte 19 Norte 0 -- -- 60
2020-06-15 12:00:00 16 4 Norte 22 Noroeste 0 -- -- 66
2020-06-15 11:00:00 15.3 8 Norte 15 Nordeste 0 -- -- 68
2020-06-15 10:00:00 13.5 6 Nordeste 14 Nordeste 0 -- -- 80
2020-06-15 09:00:00 11.6 8 Norte 13 Noroeste 0 -- -- 89
2020-06-15 08:00:00 10 5 Noroeste 9 Norte 0 -- -- 93
2020-06-15 07:00:00 10.4 4 Norte 8 Norte 0 -- -- 90
2020-06-15 06:00:00 10.4 3 Noroeste 5 Noroeste 0 -- -- 88
2020-06-15 05:00:00 10.8 3 Noroeste 6 Noroeste 0 -- -- 85
2020-06-15 04:00:00 11.5 3 Noroeste 4 Norte 0 -- -- 83
2020-06-15 03:00:00 11.6 3 Norte 5 Norte 0 -- -- 82
2020-06-15 02:00:00 11.3 0 Calma 5 Sur 0 -- -- 83
2020-06-15 01:00:00 12.2 3 Norte 10 Norte 0 -- -- 78
2020-06-15 00:00:00 12.8 9 Norte 15 Norte 0 -- -- 77
2020-06-14 23:00:00 13.6 12 Norte 26 Norte 0 -- -- 73
2020-06-14 22:00:00 15.3 17 Norte 26 Norte 0 -- -- 66
2020-06-14 21:00:00 17.2 18 Noroeste 27 Noroeste 0 -- -- 58
2020-06-14 20:00:00 18.9 16 Noroeste 25 Noroeste 0 -- -- 52
2020-06-14 19:00:00 19.8 18 Noroeste 27 Noroeste 0 -- -- 49
2020-06-14 18:00:00 19.8 16 Noroeste 28 Norte 0 -- -- 49
2020-06-14 17:00:00 20.3 13 Noroeste 24 Noroeste 0 -- -- 46
2020-06-14 16:00:00 20 11 Noroeste 26 Noroeste 0 -- -- 46
2020-06-14 15:00:00 19.8 5 Nordeste 22 Oeste 0 -- -- 46
2020-06-14 14:00:00 19.1 9 Noroeste 21 Oeste 0 -- -- 47
2020-06-14 13:00:00 18.5 12 Noroeste 21 Oeste 0 -- -- 46
2020-06-14 12:00:00 16.8 4 Noroeste 17 Norte 0 -- -- 51
2020-06-14 11:00:00 15.3 3 Norte 8 Nordeste 0 -- -- 59
2020-06-14 10:00:00 12.7 2 Norte 5 Este 0 -- -- 76
2020-06-14 09:00:00 9.8 0 Calma 6 Sur 0 -- -- 91
2020-06-14 08:00:00 6.9 6 Sur 10 Sur 0 -- -- 94
2020-06-14 07:00:00 6.2 5 Sur 12 Sur 0 -- -- 93
2020-06-14 06:00:00 7.1 8 Sur 9 Sur 0 -- -- 92
2020-06-14 05:00:00 7.9 5 Sur 6 Sur 0 -- -- 92
2020-06-14 04:00:00 8.2 3 Sur 6 Sur 0 -- -- 89
2020-06-14 03:00:00 9.3 3 Sudeste 8 Noroeste 0 -- -- 84
2020-06-14 02:00:00 10.7 5 Noroeste 10 Noroeste 0 -- -- 81
2020-06-14 01:00:00 10.3 6 Noroeste 15 Oeste 0 -- -- 80
2020-06-14 00:00:00 11.3 6 Noroeste 12 Noroeste 0 -- -- 74
2020-06-13 23:00:00 12.6 6 Noroeste 12 Noroeste 0 -- -- 68
2020-06-13 22:00:00 14.2 10 Noroeste 19 Noroeste 0 -- -- 63
2020-06-13 21:00:00 15.2 13 Oeste 21 Noroeste 0 -- -- 62
2020-06-13 20:00:00 15.3 13 Noroeste 25 Noroeste 0 -- -- 64
2020-06-13 19:00:00 16.9 11 Noroeste 23 Oeste 0 -- -- 56
2020-06-13 18:00:00 16.8 10 Noroeste 24 Sur 0 -- -- 56
2020-06-13 17:00:00 18 14 Sudoeste 26 Sudoeste 0 -- -- 50
2020-06-13 16:00:00 17.6 13 Sudoeste 22 Sudoeste 0 -- -- 50
2020-06-13 15:00:00 17.2 8 Oeste 19 Noroeste 0 -- -- 53
2020-06-13 14:00:00 16.8 11 Noroeste 21 Noroeste 0 -- -- 55
2020-06-13 13:00:00 15.5 10 Noroeste 18 Norte 0 -- -- 61
2020-06-13 12:00:00 14.1 6 Oeste 20 Oeste 0 -- -- 63
2020-06-13 11:00:00 13.6 12 Oeste 19 Oeste 0 -- -- 67
2020-06-13 10:00:00 11.6 6 Sur 11 Sudoeste 0 -- -- 83
2020-06-13 09:00:00 9.3 2 Sur 8 Sur 0 -- -- 94
2020-06-13 08:00:00 6.2 2 Sudeste 9 Sudeste 0 -- -- 95
2020-06-13 07:00:00 6.3 5 Sudeste 8 Sur 0 -- -- 93
2020-06-13 06:00:00 7.1 5 Sur 8 Sudeste 0 -- -- 92
2020-06-13 05:00:00 7.5 4 Sur 15 Sur 0 -- -- 93
2020-06-13 04:00:00 7.7 7 Sudeste 10 Sudeste 0 -- -- 91
2020-06-13 03:00:00 8.7 9 Oeste 20 Oeste 0 -- -- 89
2020-06-13 02:00:00 9.7 4 Sur 14 Oeste 0 -- -- 85
2020-06-13 01:00:00 10 9 Oeste 15 Oeste 0 -- -- 85
2020-06-13 00:00:00 9.8 9 Oeste 17 Oeste 0 -- -- 85
2020-06-12 23:00:00 10.1 8 Oeste 18 Sudoeste 0 -- -- 82
2020-06-12 22:00:00 11 14 Oeste 27 Noroeste 0 -- -- 78
2020-06-12 21:00:00 12.3 19 Noroeste 35 Noroeste 0 -- -- 73
2020-06-12 20:00:00 12.6 19 Oeste 42 Oeste 0 -- -- 72
2020-06-12 19:00:00 14.4 25 Oeste 40 Oeste 0 -- -- 64
2020-06-12 18:00:00 15.2 26 Oeste 39 Sudoeste 0 -- -- 61
2020-06-12 17:00:00 14.7 24 Oeste 36 Oeste 0 -- -- 68
2020-06-12 16:00:00 12.8 18 Oeste 37 Noroeste 0.6 -- -- 90
2020-06-12 15:00:00 12.3 19 Oeste 41 Oeste 0.6 -- -- 78
2020-06-12 14:00:00 12.3 15 Oeste 38 Sudoeste 0 -- -- 85
2020-06-12 13:00:00 12.1 15 Sudoeste 32 Oeste 0 -- -- 76
2020-06-12 12:00:00 11.8 18 Sudoeste 36 Oeste 0 -- -- 74
2020-06-12 11:00:00 10.7 18 Oeste 28 Sudoeste 0 -- -- 79
2020-06-12 10:00:00 10.7 14 Oeste 22 Sudoeste 0 -- -- 79
2020-06-12 09:00:00 9.4 10 Sudoeste 18 Sudoeste 0 -- -- 83
2020-06-12 08:00:00 8.7 8 Sudoeste 19 Sur 0 -- -- 80
2020-06-12 07:00:00 8.3 12 Sur 25 Sur 0 -- -- 80
2020-06-12 06:00:00 7.8 10 Sur 25 Oeste 0 -- -- 81
2020-06-12 05:00:00 8.1 9 Sudoeste 21 Sudoeste 0 -- -- 81
2020-06-12 04:00:00 7.6 10 Oeste 21 Oeste 0 -- -- 84
2020-06-12 03:00:00 7.8 4 Oeste 19 Oeste 0 -- -- 82
2020-06-12 02:00:00 8.3 5 Oeste 23 Oeste 0 -- -- 79
2020-06-12 01:00:00 9 17 Noroeste 38 Noroeste 0 -- -- 73
2020-06-12 00:00:00 9 23 Oeste 33 Noroeste 0 -- -- 73
2020-06-11 23:00:00 9.7 10 Oeste 26 Sudoeste 0 -- -- 69
2020-06-11 22:00:00 11.1 13 Noroeste 38 Oeste 0 -- -- 60
2020-06-11 21:00:00 12.8 22 Noroeste 48 Oeste 0 -- -- 57
2020-06-11 20:00:00 14.9 25 Oeste 44 Oeste 0 -- -- 57
2020-06-11 19:00:00 16.1 30 Oeste 44 Noroeste 0 -- -- 56
2020-06-11 18:00:00 18 28 Oeste 51 Noroeste 0 -- -- 48
2020-06-11 17:00:00 17.9 30 Oeste 46 Oeste 0 -- -- 56
2020-06-11 16:00:00 19.6 26 Noroeste 51 Noroeste 0 -- -- 52
2020-06-11 15:00:00 19.4 28 Noroeste 43 Noroeste 0 -- -- 53
2020-06-11 14:00:00 18.9 20 Oeste 42 Oeste 0 -- -- 57
2020-06-11 13:00:00 17.8 19 Oeste 33 Oeste 0 -- -- 60
2020-06-11 12:00:00 16.7 20 Oeste 33 Noroeste 0 -- -- 65
2020-06-11 11:00:00 14 19 Noroeste 30 Noroeste 0 -- -- 72
2020-06-11 10:00:00 12.4 10 Noroeste 19 Oeste 0 -- -- 78
2020-06-11 09:00:00 10.6 10 Noroeste 17 Noroeste 0 -- -- 83
2020-06-11 08:00:00 8.8 4 Norte 11 Noroeste 0 -- -- 88
2020-06-11 07:00:00 7.9 5 Noroeste 8 Noroeste 0 -- -- 86
2020-06-11 06:00:00 8.4 2 Oeste 7 Noroeste 0 -- -- 81
2020-06-11 05:00:00 9.3 4 Noroeste 13 Noroeste 0 -- -- 79
2020-06-11 04:00:00 9.8 0 Calma 7 Norte 0 -- -- 79
2020-06-11 03:00:00 10.4 3 Norte 6 Norte 0 -- -- 79
2020-06-11 02:00:00 11.8 3 Noroeste 6 Noroeste 0 -- -- 74
2020-06-11 01:00:00 13.7 3 Sudoeste 7 Sudoeste 0 -- -- 69
2020-06-11 00:00:00 14.9 3 Noroeste 21 Noroeste 0 -- -- 66
2020-06-10 23:00:00 15.8 13 Noroeste 28 Oeste 0 -- -- 63
2020-06-10 22:00:00 17.7 16 Noroeste 30 Noroeste 0 -- -- 59
2020-06-10 21:00:00 20.6 21 Noroeste 32 Oeste 0 -- -- 49
2020-06-10 20:00:00 22.7 19 Noroeste 31 Noroeste 0 -- -- 43
2020-06-10 19:00:00 24.4 14 Oeste 30 Oeste 0 -- -- 28
2020-06-10 18:00:00 24.5 14 Oeste 31 Noroeste 0 -- -- 31
2020-06-10 17:00:00 23.7 17 Sur 30 Sudoeste 0 -- -- 35
2020-06-10 16:00:00 23.6 9 Oeste 30 Sudoeste 0 -- -- 35
2020-06-10 15:00:00 23.1 13 Sur 29 Sur 0 -- -- 34
2020-06-10 14:00:00 22.4 11 Sudeste 28 Sudeste 0 -- -- 40
2020-06-10 13:00:00 21.8 12 Sudoeste 24 Sudoeste 0 -- -- 41
2020-06-10 12:00:00 20.1 6 Sur 16 Sudeste 0 -- -- 49
2020-06-10 11:00:00 17.6 3 Oeste 10 Noroeste 0 -- -- 59
2020-06-10 10:00:00 14.4 3 Norte 8 Norte 0 -- -- 74
2020-06-10 09:00:00 10.6 0 Calma 11 Sur 0 -- -- 95
2020-06-10 08:00:00 7.2 10 Sur 14 Sur 0 -- -- 94
2020-06-10 07:00:00 7.7 4 Sur 12 Sudeste 0 -- -- 92
2020-06-10 06:00:00 8.2 4 Sur 8 Sur 0 -- -- 91
2020-06-10 05:00:00 8.9 7 Sur 11 Sur 0 -- -- 90
2020-06-10 04:00:00 10.4 5 Sur 9 Sur 0 -- -- 88
2020-06-10 03:00:00 11 5 Sur 9 Sur 0 -- -- 82
2020-06-10 02:00:00 12.3 6 Norte 11 Norte 0 -- -- 78
2020-06-10 01:00:00 13.3 10 Norte 14 Norte 0 -- -- 75
2020-06-10 00:00:00 14.3 7 Noroeste 15 Noroeste 0 -- -- 72
2020-06-09 23:00:00 15.9 12 Oeste 18 Noroeste 0 -- -- 65
2020-06-09 22:00:00 18.3 3 Norte 9 Norte 0 -- -- 40
2020-06-09 21:00:00 19.6 8 Norte 19 Norte 0 -- -- 35
2020-06-09 20:00:00 21.6 8 Norte 23 Norte 0 -- -- 31
2020-06-09 19:00:00 21.6 15 Noroeste 26 Noroeste 0 -- -- 32
2020-06-09 18:00:00 21.8 10 Norte 25 Noroeste 0 -- -- 31
2020-06-09 17:00:00 21.6 10 Norte 27 Nordeste 0 -- -- 34
2020-06-09 16:00:00 21.3 14 Noroeste 31 Noroeste 0 -- -- 35
2020-06-09 15:00:00 20.5 14 Norte 25 Norte 0 -- -- 38
2020-06-09 14:00:00 20 14 Noroeste 26 Norte 0 -- -- 41
2020-06-09 13:00:00 19.3 9 Noroeste 19 Noroeste 0 -- -- 45
2020-06-09 12:00:00 17.5 7 Norte 16 Norte 0 -- -- 53
2020-06-09 11:00:00 15.1 4 Nordeste 10 Norte 0 -- -- 61
2020-06-09 10:00:00 12.4 3 Norte 6 Noroeste 0 -- -- 70
2020-06-09 09:00:00 9.6 0 Calma 9 Norte 0 -- -- 82
2020-06-09 08:00:00 6.2 4 Sur 12 Sur 0 -- -- 92
2020-06-09 07:00:00 5.2 6 Sur 8 Sur 0 -- -- 89
2020-06-09 06:00:00 6.2 0 Calma 5 Noroeste 0 -- -- 86
2020-06-09 05:00:00 7.5 2 Oeste 8 Norte 0 -- -- 79
2020-06-09 04:00:00 8.5 6 Norte 10 Noroeste 0 -- -- 76
2020-06-09 03:00:00 10.1 4 Norte 12 Norte 0 -- -- 67
2020-06-09 02:00:00 11.1 7 Norte 11 Norte 0 -- -- 60
2020-06-09 01:00:00 10.8 5 Sur 10 Este 0 -- -- 60
2020-06-09 00:00:00 12.9 5 Nordeste 8 Este 0 -- -- 53
2020-06-08 23:00:00 13.9 4 Nordeste 6 Nordeste 0 -- -- 49
2020-06-08 22:00:00 16.3 3 Nordeste 17 Nordeste 0 -- -- 45
2020-06-08 21:00:00 18.1 13 Norte 30 Norte 0 -- -- 36
2020-06-08 20:00:00 19.1 13 Norte 27 Norte 0 -- -- 36
2020-06-08 19:00:00 19.4 11 Nordeste 34 Nordeste 0 -- -- 37
2020-06-08 18:00:00 19.8 14 Nordeste 36 Nordeste 0 -- -- 37
2020-06-08 17:00:00 18.4 12 Norte 28 Nordeste 0 -- -- 41
2020-06-08 16:00:00 18.8 13 Norte 27 Nordeste 0 -- -- 42
2020-06-08 15:00:00 18.3 13 Norte 30 Norte 0 -- -- 47
2020-06-08 14:00:00 17.3 18 Norte 32 Norte 0 -- -- 47
2020-06-08 13:00:00 16.5 19 Norte 32 Norte 0 -- -- 48
2020-06-08 12:00:00 15.6 17 Nordeste 32 Nordeste 0 -- -- 51
2020-06-08 11:00:00 13.4 19 Nordeste 38 Nordeste 0 -- -- 56
2020-06-08 10:00:00 11.8 23 Norte 35 Norte 0 -- -- 63
2020-06-08 09:00:00 9.9 15 Norte 26 Norte 0 -- -- 73
2020-06-08 08:00:00 7.6 16 Norte 23 Norte 0 -- -- 83
2020-06-08 07:00:00 6.9 13 Norte 21 Norte 0 -- -- 85
2020-06-08 06:00:00 7.4 12 Norte 23 Norte 0 -- -- 85
2020-06-08 05:00:00 7.5 10 Norte 17 Norte 0 -- -- 91
2020-06-08 04:00:00 8 5 Norte 11 Norte 0 -- -- 90
2020-06-08 03:00:00 7.9 5 Noroeste 8 Noroeste 0 -- -- 86
2020-06-08 02:00:00 9.3 3 Norte 13 Noroeste 0 -- -- 85
2020-06-08 01:00:00 9.4 6 Norte 18 Norte 0 -- -- 83
2020-06-08 00:00:00 10.6 6 Noroeste 17 Noroeste 0 -- -- 77
2020-06-07 23:00:00 12.1 14 Noroeste 26 Noroeste 0 -- -- 72
2020-06-07 22:00:00 14 16 Noroeste 28 Noroeste 0 -- -- 66
2020-06-07 21:00:00 16.9 18 Noroeste 31 Noroeste 0 -- -- 56
2020-06-07 20:00:00 18.5 17 Noroeste 27 Oeste 0 -- -- 53
2020-06-07 19:00:00 19.5 16 Noroeste 28 Norte 0 -- -- 50
2020-06-07 18:00:00 19.9 15 Noroeste 27 Oeste 0 -- -- 49
2020-06-07 17:00:00 18.9 10 Noroeste 25 Oeste 0 -- -- 55
2020-06-07 16:00:00 18 11 Noroeste 27 Noroeste 0 -- -- 61
2020-06-07 15:00:00 17.5 18 Noroeste 31 Oeste 0 -- -- 63
2020-06-07 14:00:00 16.2 7 Oeste 18 Oeste 0 -- -- 69
2020-06-07 13:00:00 14.7 12 Oeste 19 Oeste 0 -- -- 75
2020-06-07 12:00:00 13.9 12 Noroeste 18 Noroeste 0 -- -- 80
2020-06-07 11:00:00 13.3 9 Noroeste 20 Noroeste 0 -- -- 82
2020-06-07 10:00:00 13.5 12 Noroeste 23 Noroeste 0 -- -- 83
2020-06-07 09:00:00 12 8 Noroeste 14 Noroeste 0 -- -- 91
2020-06-07 08:00:00 11.5 8 Noroeste 15 Noroeste 0 -- -- 92
2020-06-07 07:00:00 11.4 8 Noroeste 13 Noroeste 0 -- -- 93
2020-06-07 06:00:00 11.6 4 Noroeste 12 Oeste 0 -- -- 91
2020-06-07 05:00:00 11.9 4 Oeste 9 Oeste 0 -- -- 90
2020-06-07 04:00:00 11.9 5 Noroeste 8 Noroeste 0 -- -- 90
2020-06-07 03:00:00 11.6 4 Noroeste 12 Noroeste 0 -- -- 90
2020-06-07 02:00:00 11.6 3 Norte 6 Norte 0 -- -- 86
2020-06-07 01:00:00 12.4 3 Noroeste 6 Noroeste 0 -- -- 82
2020-06-07 00:00:00 12.7 6 Noroeste 14 Noroeste 0 -- -- 81